Time;durP1;ratioP1;P1;durP2;ratioP2;P2;SDS_P1;SDS_P2;PMS_P1;PMS_P2;Temp;Humidity;BMP_temperature;BMP_pressure;BME280_temperature;BME280_humidity;BME280_pressure;Samples;Min_cycle;Max_cycle;Signal;HPM_P1;HPM_P2
2021/07/24 00:01:28;;;;;;;;;13.25;13.25;;;;;27.89;37.94;99915.66;5016863;28;45558;-80
2021/07/24 00:03:53;;;;;;;;;14.00;13.00;;;;;27.87;37.74;99911.56;5017398;28;45627;-80
2021/07/24 00:06:19;;;;;;;;;16.00;13.75;;;;;27.89;37.45;99931.81;5017269;28;45645;-80
2021/07/24 00:08:44;;;;;;;;;16.25;14.00;;;;;27.91;37.48;99936.94;5017142;28;45728;-78
2021/07/24 00:11:10;;;;;;;;;14.50;13.50;;;;;27.74;37.20;99915.38;4999209;28;45591;-80
2021/07/24 00:13:37;;;;;;;;;15.50;13.75;;;;;27.61;37.90;99894.06;5017522;28;45758;-80
2021/07/24 00:16:03;;;;;;;;;16.00;14.00;;;;;27.74;37.89;99914.53;5016662;28;45735;-80
2021/07/24 00:18:29;;;;;;;;;15.75;14.25;;;;;27.87;37.79;99925.84;5016433;28;46017;-78
2021/07/24 00:20:55;;;;;;;;;13.75;13.00;;;;;27.85;37.73;99906.44;4998629;28;45621;-80
2021/07/24 00:26:44;;;;;;;;;14.50;12.75;;;;;27.80;37.81;99922.47;5015797;28;45607;-81
2021/07/24 00:29:09;;;;;;;;;14.25;13.25;;;;;27.76;38.33;99915.09;5016188;28;45569;-80
2021/07/24 00:31:35;;;;;;;;;14.00;13.50;;;;;27.78;37.79;99916.53;5016120;28;45679;-80
2021/07/24 00:34:01;;;;;;;;;16.00;14.75;;;;;27.75;37.75;99911.59;5016248;28;45724;-80
2021/07/24 00:36:27;;;;;;;;;12.75;12.75;;;;;27.69;37.70;99917.13;5015860;28;46654;-79
2021/07/24 00:38:52;;;;;;;;;12.75;12.50;;;;;27.68;38.56;99908.25;5016039;28;45568;-80
2021/07/24 00:41:44;;;;;;;;;13.00;13.00;;;;;27.63;38.46;99894.66;5015988;28;45625;-80
2021/07/24 00:44:13;;;;;;;;;16.75;15.75;;;;;27.57;38.33;99889.41;5015263;28;45512;-80
2021/07/24 00:46:38;;;;;;;;;19.00;16.50;;;;;27.51;38.32;99892.00;5015571;28;46575;-80
2021/07/24 00:49:06;;;;;;;;;15.75;15.50;;;;;27.66;38.45;99921.09;5015773;28;45789;-79
2021/07/24 00:51:33;;;;;;;;;15.25;15.00;;;;;27.64;38.46;99931.28;5016008;28;45602;-80
2021/07/24 00:54:01;;;;;;;;;17.00;14.50;;;;;27.68;38.49;99934.34;5015959;28;45541;-79
2021/07/24 00:56:28;;;;;;;;;15.25;13.50;;;;;27.67;38.21;99932.69;5015986;28;45759;-78
2021/07/24 00:58:55;;;;;;;;;16.25;14.75;;;;;27.60;38.55;99927.44;5016709;28;46411;-81
2021/07/24 01:01:21;;;;;;;;;15.75;13.25;;;;;27.61;38.29;99933.63;5015831;28;45673;-80
2021/07/24 01:03:47;;;;;;;;;18.00;17.00;;;;;27.52;38.96;99914.34;5016230;28;45672;-80
2021/07/24 01:06:16;;;;;;;;;18.50;16.00;;;;;27.55;38.90;99916.56;5019381;28;45780;-80
2021/07/24 01:12:33;;;;;;;;;15.75;15.25;;;;;27.51;39.13;99905.47;5011535;28;45758;-81
2021/07/24 01:15:00;;;;;;;;;16.75;15.25;;;;;27.50;39.40;99906.50;5016277;28;45513;-78
2021/07/24 01:17:26;;;;;;;;;17.50;15.00;;;;;27.46;39.02;99915.25;5015762;28;45378;-78
2021/07/24 01:19:51;;;;;;;;;17.00;15.25;;;;;27.46;39.07;99917.94;5015754;28;45551;-79
2021/07/24 01:22:17;;;;;;;;;17.00;14.50;;;;;27.23;39.37;99885.69;5014060;28;45635;-79
2021/07/24 01:24:42;;;;;;;;;19.50;17.25;;;;;27.34;40.08;99914.44;5015797;28;45486;-79
2021/07/24 01:27:08;;;;;;;;;18.25;17.00;;;;;27.22;40.25;99935.97;5015390;28;46645;-79
2021/07/24 01:29:36;;;;;;;;;14.00;14.00;;;;;27.03;41.42;99915.63;4997878;28;45652;-80
2021/07/24 01:32:02;;;;;;;;;14.25;13.00;;;;;26.72;41.53;99895.22;5015856;28;45681;-79
2021/07/24 01:34:27;;;;;;;;;16.50;16.50;;;;;26.80;41.78;99923.63;5015830;28;45576;-81
2021/07/24 01:36:53;;;;;;;;;16.00;14.50;;;;;26.63;42.75;99937.72;5015607;28;46383;-82
2021/07/24 01:39:18;;;;;;;;;13.75;13.25;;;;;26.62;43.70;99951.38;5015464;28;45531;-79
2021/07/24 01:41:45;;;;;;;;;16.00;15.00;;;;;26.30;43.38;99919.41;5016116;28;45668;-81
2021/07/24 01:44:11;;;;;;;;;14.50;13.25;;;;;26.38;44.43;99945.13;5016840;28;45519;-79
2021/07/24 01:46:36;;;;;;;;;13.75;13.00;;;;;26.22;44.71;99948.44;4998552;28;48056;-79
2021/07/24 01:58:06;;;;;;;;;11.00;9.00;;;;;25.76;48.98;99949.81;5017065;28;46085;-79
2021/07/24 02:00:34;;;;;;;;;9.25;9.25;;;;;25.63;48.27;99959.88;5018357;28;46359;-79
2021/07/24 02:03:02;;;;;;;;;7.00;7.00;;;;;25.52;49.70;99963.25;4999009;28;45812;-80
2021/07/24 02:05:34;;;;;;;;;9.25;8.50;;;;;25.30;49.54;99941.41;5018430;28;45587;-79
2021/07/24 02:08:03;;;;;;;;;9.75;8.00;;;;;25.24;48.92;99940.41;5003939;28;46378;-80
2021/07/24 02:10:30;;;;;;;;;8.25;7.75;;;;;25.21;49.50;99956.13;5020559;28;45516;-79
2021/07/24 02:12:55;;;;;;;;;6.25;5.50;;;;;25.02;50.04;99944.53;5019535;28;45781;-79
2021/07/24 02:15:21;;;;;;;;;7.75;7.00;;;;;25.05;49.92;99955.63;5019702;28;45531;-82
2021/07/24 02:17:47;;;;;;;;;6.50;6.50;;;;;24.84;50.16;99936.38;5019706;28;46269;-81
2021/07/24 02:20:19;;;;;;;;;6.00;5.25;;;;;24.90;50.79;99975.75;5020804;28;46466;-80
2021/07/24 02:22:44;;;;;;;;;6.00;6.00;;;;;24.62;50.39;99952.00;5022036;28;45657;-80
2021/07/24 02:25:10;;;;;;;;;7.00;6.50;;;;;24.72;50.59;99983.69;5022037;28;45470;-80
2021/07/24 02:27:35;;;;;;;;;8.25;7.25;;;;;24.64;50.72;99976.72;5021351;28;45484;-81
2021/07/24 02:30:00;;;;;;;;;7.00;6.00;;;;;24.50;50.89;99956.44;5018560;28;47964;-78
2021/07/24 02:32:26;;;;;;;;;7.00;6.50;;;;;24.30;50.92;99939.63;5021003;28;45500;-78
2021/07/24 02:34:51;;;;;;;;;6.00;5.25;;;;;24.51;51.27;99972.25;5003048;28;45525;-79
2021/07/24 02:37:17;;;;;;;;;7.00;6.00;;;;;24.48;50.81;99972.69;5019423;28;46416;-81
2021/07/24 02:39:42;;;;;;;;;6.25;5.75;;;;;24.53;50.71;99974.72;5017439;28;45571;-80
2021/07/24 02:42:07;;;;;;;;;7.00;6.00;;;;;24.39;50.63;99962.47;5016516;28;45555;-81
2021/07/24 02:44:33;;;;;;;;;1.00;1.00;;;;;24.47;51.61;99989.81;5015530;28;45780;-81
2021/07/24 02:46:58;;;;;;;;;8.00;7.50;;;;;24.37;51.47;99967.19;5015089;28;46309;-80
2021/07/24 02:49:23;;;;;;;;;10.00;6.00;;;;;24.42;51.19;99986.13;5015420;28;46612;-81
2021/07/24 02:51:49;;;;;;;;;5.00;5.00;;;;;24.32;50.82;99975.06;5015475;28;45468;-82
2021/07/24 02:54:14;;;;;;;;;5.00;5.00;;;;;24.29;51.27;99967.47;5015486;28;45811;-82
2021/07/24 02:56:40;;;;;;;;;6.00;5.50;;;;;24.12;51.39;99937.66;5015242;28;45645;-80
2021/07/24 02:59:05;;;;;;;;;4.25;4.25;;;;;24.05;51.49;99926.13;5015436;28;45670;-82
2021/07/24 03:01:31;;;;;;;;;6.50;5.00;;;;;24.10;51.01;99937.03;5015714;28;45626;-81
2021/07/24 03:03:56;;;;;;;;;7.75;5.00;;;;;23.90;51.46;99918.38;5015245;28;45672;-81
2021/07/24 03:06:21;;;;;;;;;3.00;3.00;;;;;24.18;51.48;99979.66;5014723;28;46473;-83
2021/07/24 03:12:09;;;;;;;;;3.75;3.75;;;;;24.00;51.60;99972.28;5013290;28;45635;-82
2021/07/24 03:14:35;;;;;;;;;5.50;5.50;;;;;23.84;50.86;99973.56;5014939;28;45638;-81
2021/07/24 03:17:01;;;;;;;;;5.75;5.00;;;;;23.68;50.97;99952.63;4996350;28;48245;-81
2021/07/24 03:19:26;;;;;;;;;4.75;4.75;;;;;23.91;50.96;100007.53;5014569;28;46107;-81
2021/07/24 03:21:52;;;;;;;;;6.50;4.25;;;;;23.79;51.12;99992.13;5014656;28;46066;-82
2021/07/24 03:24:17;;;;;;;;;5.25;4.00;;;;;23.84;51.52;100004.84;5015302;28;45662;-79
2021/07/24 03:26:43;;;;;;;;;5.00;5.00;;;;;23.71;52.01;100003.03;5017708;28;45491;-81
2021/07/24 03:29:08;;;;;;;;;6.00;5.75;;;;;23.75;51.17;100011.47;5017810;28;45621;-80
2021/07/24 03:31:35;;;;;;;;;5.25;5.25;;;;;23.49;51.33;99974.03;5017975;28;45562;-79
2021/07/24 03:34:00;;;;;;;;;7.00;5.25;;;;;23.67;50.99;100009.00;5018349;28;45620;-79
2021/07/24 03:36:25;;;;;;;;;5.25;5.00;;;;;23.62;51.46;100012.31;5018735;28;45468;-80
2021/07/24 03:42:13;;;;;;;;;5.00;4.75;;;;;23.59;51.10;100015.38;5019442;28;45587;-82
2021/07/24 03:44:38;;;;;;;;;8.75;6.75;;;;;23.64;50.85;100023.63;5022449;28;45434;-81
2021/07/24 03:47:04;;;;;;;;;4.25;4.00;;;;;23.67;51.63;100035.75;5024412;28;45559;-83
2021/07/24 03:49:29;;;;;;;;;15.50;14.25;;;;;23.71;50.88;100059.19;5024184;28;45454;-83
2021/07/24 03:51:54;;;;;;;;;4.75;4.75;;;;;23.62;51.20;100060.47;5023659;28;45565;-83
2021/07/24 03:54:20;;;;;;;;;6.75;6.25;;;;;23.56;51.36;100061.28;5018184;28;45477;-81
2021/07/24 03:56:45;;;;;;;;;6.25;6.00;;;;;23.76;51.19;100088.84;5017128;28;45581;-82
2021/07/24 03:59:11;;;;;;;;;5.25;5.00;;;;;23.77;50.83;100095.00;5017270;28;45556;-81
2021/07/24 04:01:37;;;;;;;;;5.25;5.25;;;;;23.76;51.23;100090.69;5017140;28;45495;-82
2021/07/24 04:04:03;;;;;;;;;4.00;4.00;;;;;23.57;50.93;100065.59;5018291;28;45667;-80
2021/07/24 04:06:29;;;;;;;;;5.75;5.25;;;;;23.71;50.96;100090.47;5017900;28;46318;-81
2021/07/24 04:12:16;;;;;;;;;5.25;5.25;;;;;23.63;51.54;100094.22;5015824;28;45459;-79
2021/07/24 04:14:41;;;;;;;;;6.00;6.00;;;;;23.63;51.37;100109.44;5017781;28;45536;-80
2021/07/24 04:17:07;;;;;;;;;6.75;6.50;;;;;23.58;51.17;100114.56;5016341;28;46707;-80
2021/07/24 04:19:33;;;;;;;;;7.00;6.00;;;;;23.43;51.51;100088.81;5016691;28;45481;-81
2021/07/24 04:21:59;;;;;;;;;4.75;4.75;;;;;23.51;51.38;100087.00;5016674;28;45603;-80
2021/07/24 04:24:24;;;;;;;;;7.00;5.00;;;;;23.44;51.08;100087.78;5016660;28;45743;-81
2021/07/24 04:26:50;;;;;;;;;6.75;5.50;;;;;23.57;51.13;100118.28;5016388;28;46478;-80
2021/07/24 04:29:15;;;;;;;;;8.00;8.00;;;;;23.54;51.88;100108.78;5016259;28;45500;-79
2021/07/24 04:31:41;;;;;;;;;6.00;5.75;;;;;23.46;51.69;100082.25;5016673;28;45663;-80
2021/07/24 04:34:06;;;;;;;;;8.25;7.75;;;;;23.49;51.69;100089.88;5016224;28;45509;-81
2021/07/24 04:36:32;;;;;;;;;6.00;6.00;;;;;23.38;51.52;100088.59;5013804;28;48445;-81
2021/07/24 04:42:19;;;;;;;;;5.00;4.00;;;;;23.15;51.73;100061.44;5015781;28;45627;-80
2021/07/24 04:44:44;;;;;;;;;7.50;6.75;;;;;23.21;51.87;100083.88;5016133;28;45619;-81
2021/07/24 04:47:10;;;;;;;;;6.00;5.00;;;;;23.36;51.94;100108.56;5015984;28;46306;-80
2021/07/24 04:49:48;;;;;;;;;5.50;5.00;;;;;23.23;51.92;100098.66;5016299;28;45650;-81
2021/07/24 04:52:13;;;;;;;;;6.50;5.50;;;;;23.09;51.82;100091.66;5016299;28;45485;-80
2021/07/24 04:54:39;;;;;;;;;5.25;5.00;;;;;23.09;51.75;100083.63;5016372;28;45507;-79
2021/07/24 04:57:05;;;;;;;;;6.00;5.00;;;;;23.26;51.77;100111.63;5015797;28;45522;-81
2021/07/24 04:59:30;;;;;;;;;7.25;7.00;;;;;23.13;51.77;100095.56;5014315;28;47225;-78
2021/07/24 05:01:56;;;;;;;;;6.25;6.00;;;;;23.34;51.73;100135.50;5016219;28;45617;-79
2021/07/24 05:04:21;;;;;;;;;5.25;5.25;;;;;23.13;52.09;100102.75;5016252;28;45483;-81
2021/07/24 05:06:47;;;;;;;;;7.00;6.75;;;;;23.10;52.42;100113.88;5016085;28;46395;-81
2021/07/24 05:12:35;;;;;;;;;6.50;5.75;;;;;23.17;52.28;100141.41;5014335;28;45612;-81
2021/07/24 05:15:01;;;;;;;;;6.00;5.00;;;;;23.17;52.57;100136.91;5020841;28;45632;-79
2021/07/24 05:17:26;;;;;;;;;7.75;7.50;;;;;23.09;52.07;100138.94;5019569;28;46354;-82
2021/07/24 05:19:52;;;;;;;;;5.75;5.25;;;;;23.11;52.63;100155.59;5018545;28;45417;-80
2021/07/24 05:22:17;;;;;;;;;8.00;7.00;;;;;22.87;52.66;100125.72;5016353;28;45581;-81
2021/07/24 05:24:46;;;;;;;;;7.00;7.00;;;;;22.90;52.50;100124.47;5016110;28;45666;-82
2021/07/24 05:27:13;;;;;;;;;7.25;7.00;;;;;22.82;52.42;100125.50;4998403;28;48542;-80
2021/07/24 05:29:40;;;;;;;;;8.00;7.00;;;;;22.83;52.86;100129.00;5017237;28;45871;-82
2021/07/24 05:32:05;;;;;;;;;8.75;7.75;;;;;22.91;52.58;100143.00;5016607;28;45489;-81
2021/07/24 05:34:31;;;;;;;;;9.25;7.50;;;;;22.82;52.33;100133.50;5017111;28;45761;-79
2021/07/24 05:36:56;;;;;;;;;9.00;8.50;;;;;22.98;53.19;100153.72;5017299;28;45601;-80
2021/07/24 05:42:44;;;;;;;;;7.25;6.00;;;;;22.88;53.16;100156.75;5015349;28;45541;-80
2021/07/24 05:45:09;;;;;;;;;8.00;7.75;;;;;22.86;52.99;100156.13;5015176;28;45504;-79
2021/07/24 05:47:35;;;;;;;;;7.00;6.00;;;;;22.77;54.24;100156.50;5014495;28;46470;-81
2021/07/24 05:50:03;;;;;;;;;7.50;7.00;;;;;22.72;53.76;100161.63;5014923;28;46084;-80
2021/07/24 05:52:28;;;;;;;;;9.50;7.25;;;;;22.62;53.55;100161.13;5015150;28;45709;-75
2021/07/24 05:54:54;;;;;;;;;7.75;7.00;;;;;22.56;54.24;100152.88;5014553;28;45793;-75
2021/07/24 05:57:19;;;;;;;;;8.00;6.25;;;;;22.58;53.86;100160.69;5014472;28;45620;-75
2021/07/24 05:59:45;;;;;;;;;6.50;6.50;;;;;22.49;54.50;100156.53;5014205;28;47141;-75
2021/07/24 06:02:14;;;;;;;;;6.50;6.00;;;;;22.45;54.36;100163.31;5013897;28;45637;-75
2021/07/24 06:04:40;;;;;;;;;7.50;7.50;;;;;22.46;54.56;100162.25;5014559;28;45473;-77
2021/07/24 06:07:06;;;;;;;;;10.25;8.50;;;;;22.41;54.28;100148.66;5014425;28;47540;-77
2021/07/24 06:12:53;;;;;;;;;7.75;7.00;;;;;22.42;54.39;100161.00;5010742;28;45711;-75
2021/07/24 06:15:19;;;;;;;;;9.00;7.00;;;;;22.25;55.20;100128.47;5014659;28;45676;-75
2021/07/24 06:17:44;;;;;;;;;7.75;6.00;;;;;22.36;54.63;100137.75;5014023;28;45837;-74
2021/07/24 06:20:10;;;;;;;;;7.25;6.75;;;;;22.27;54.48;100137.09;5014264;28;45738;-74
2021/07/24 06:22:35;;;;;;;;;5.50;5.00;;;;;22.22;54.23;100136.88;5014544;28;45700;-74
2021/07/24 06:28:24;;;;;;;;;6.75;5.75;;;;;22.24;54.86;100155.38;5014471;28;46178;-76
2021/07/24 06:30:49;;;;;;;;;7.75;5.75;;;;;22.26;54.31;100143.47;4996387;28;47516;-76
2021/07/24 06:33:15;;;;;;;;;7.00;6.00;;;;;22.24;54.66;100139.34;5014254;28;45528;-74
2021/07/24 06:35:41;;;;;;;;;7.00;5.75;;;;;22.16;54.24;100134.97;5014390;28;45446;-75
2021/07/24 06:38:06;;;;;;;;;4.00;4.00;;;;;22.27;54.26;100150.44;5014369;28;46486;-76
2021/07/24 06:40:31;;;;;;;;;6.00;5.00;;;;;22.28;54.50;100141.44;5015255;28;45716;-76
2021/07/24 06:42:57;;;;;;;;;5.00;5.00;;;;;22.25;54.40;100135.63;5015012;28;45618;-76
2021/07/24 06:45:22;;;;;;;;;6.00;5.00;;;;;22.29;53.84;100147.59;5015318;28;45645;-77
2021/07/24 06:47:48;;;;;;;;;5.00;4.50;;;;;22.25;54.25;100131.13;4999359;28;46750;-75
2021/07/24 06:50:13;;;;;;;;;5.00;4.75;;;;;22.24;54.04;100140.16;5015446;28;47509;-76
2021/07/24 06:52:39;;;;;;;;;4.25;4.00;;;;;22.33;53.66;100152.34;5013432;28;46122;-76
2021/07/24 06:58:26;;;;;;;;;5.25;5.00;;;;;22.28;54.15;100154.78;5014173;28;45555;-74
2021/07/24 07:00:51;;;;;;;;;8.00;6.00;;;;;22.31;53.92;100157.03;5017400;28;46166;-77
2021/07/24 07:03:17;;;;;;;;;5.75;5.25;;;;;22.33;53.61;100148.84;5017887;28;45437;-76
2021/07/24 07:05:42;;;;;;;;;4.00;4.00;;;;;22.34;53.98;100151.31;5017740;28;45598;-76
2021/07/24 07:08:08;;;;;;;;;4.25;3.00;;;;;22.38;54.12;100151.75;5017669;28;45558;-75
2021/07/24 07:10:33;;;;;;;;;7.00;5.00;;;;;22.41;53.78;100160.19;5017684;28;45705;-76
2021/07/24 07:12:59;;;;;;;;;6.25;5.25;;;;;22.43;53.72;100152.81;5017260;28;46136;-76
2021/07/24 07:15:28;;;;;;;;;5.75;4.25;;;;;22.31;53.88;100130.34;5017632;28;45825;-76
2021/07/24 07:17:54;;;;;;;;;5.00;5.00;;;;;22.49;53.78;100148.53;5017651;28;45501;-75
2021/07/24 07:20:20;;;;;;;;;6.00;4.00;;;;;22.39;53.75;100132.03;5017571;28;45828;-75
2021/07/24 07:22:45;;;;;;;;;5.50;5.50;;;;;22.36;53.40;100122.56;5017493;28;45480;-74
2021/07/24 07:28:32;;;;;;;;;5.75;3.75;;;;;22.56;53.73;100158.19;5017614;28;45547;-77
2021/07/24 07:30:58;;;;;;;;;4.75;4.75;;;;;22.47;53.87;100134.53;5019675;28;45678;-75
2021/07/24 07:33:25;;;;;;;;;5.00;4.50;;;;;22.52;53.60;100164.13;5020397;28;45540;-78
2021/07/24 07:35:53;;;;;;;;;6.00;5.00;;;;;22.48;53.81;100158.38;5021881;28;45718;-77
2021/07/24 07:38:18;;;;;;;;;5.75;5.00;;;;;22.44;53.03;100153.63;5023451;28;45693;-79
2021/07/24 07:40:44;;;;;;;;;4.25;4.25;;;;;22.38;53.44;100133.06;5021464;28;45693;-79
2021/07/24 07:43:10;;;;;;;;;5.50;5.00;;;;;22.53;53.46;100166.63;5020274;28;45622;-77
2021/07/24 07:45:40;;;;;;;;;4.00;4.00;;;;;22.58;53.53;100176.72;5017726;28;45772;-80
2021/07/24 07:48:06;;;;;;;;;4.00;3.75;;;;;22.56;53.64;100176.91;5016889;28;46805;-78
2021/07/24 07:50:31;;;;;;;;;3.00;3.00;;;;;22.56;52.97;100168.88;4998611;28;47025;-77
2021/07/24 07:52:56;;;;;;;;;5.00;4.00;;;;;22.53;53.06;100155.13;5016723;28;45606;-78
2021/07/24 07:58:43;;;;;;;;;5.25;4.25;;;;;22.58;53.35;100177.53;5016731;28;45537;-78
2021/07/24 08:01:12;;;;;;;;;7.25;5.00;;;;;22.54;53.42;100164.78;5017266;28;45877;-78
2021/07/24 08:03:38;;;;;;;;;5.25;4.00;;;;;22.53;53.69;100166.63;5016873;28;45464;-77
2021/07/24 08:06:05;;;;;;;;;5.00;4.50;;;;;22.50;53.19;100144.84;5016153;28;45939;-80
2021/07/24 08:08:30;;;;;;;;;4.50;4.00;;;;;22.59;53.52;100157.00;4998459;28;48576;-78
2021/07/24 08:10:55;;;;;;;;;4.25;3.00;;;;;22.59;53.56;100160.50;5015395;28;46375;-79
2021/07/24 08:13:21;;;;;;;;;5.00;4.25;;;;;22.55;53.17;100153.09;5015898;28;45611;-78
2021/07/24 08:15:48;;;;;;;;;3.00;3.00;;;;;22.49;53.04;100135.19;5016231;28;45670;-78
2021/07/24 08:18:13;;;;;;;;;5.00;4.00;;;;;22.60;53.22;100162.16;5016124;28;46448;-77
2021/07/24 08:20:40;;;;;;;;;4.75;3.00;;;;;22.59;52.97;100154.31;5016467;28;45670;-76
2021/07/24 08:23:10;;;;;;;;;4.00;3.25;;;;;22.58;52.82;100142.00;5016613;28;45548;-77
2021/07/24 08:28:57;;;;;;;;;4.50;4.25;;;;;22.69;52.76;100157.47;5016174;28;45508;-78
2021/07/24 08:31:22;;;;;;;;;4.75;4.75;;;;;22.73;52.79;100158.72;5016389;28;46839;-77
2021/07/24 08:33:48;;;;;;;;;3.00;3.00;;;;;22.77;52.41;100157.34;5016287;28;45635;-78
2021/07/24 08:36:13;;;;;;;;;5.00;4.00;;;;;22.81;52.48;100147.88;5016121;28;45729;-77
2021/07/24 08:38:38;;;;;;;;;5.75;4.50;;;;;22.81;52.80;100136.38;5016317;28;45630;-76
2021/07/24 08:44:25;;;;;;;;;5.00;5.00;;;;;23.00;52.25;100149.78;5015676;28;45605;-76
2021/07/24 08:46:50;;;;;;;;;5.25;5.00;;;;;23.01;52.95;100129.25;5015315;28;45653;-77
2021/07/24 08:49:16;;;;;;;;;4.00;3.25;;;;;23.00;52.27;100123.06;5015541;28;46233;-77
2021/07/24 08:51:42;;;;;;;;;6.00;5.00;;;;;23.10;51.90;100141.41;5015824;28;46380;-78
2021/07/24 08:54:09;;;;;;;;;3.00;3.00;;;;;23.15;51.99;100135.47;5016072;28;45445;-76
2021/07/24 08:56:45;;;;;;;;;4.00;3.75;;;;;23.19;52.03;100134.84;5016169;28;45633;-77
2021/07/24 08:59:14;;;;;;;;;4.50;4.00;;;;;23.17;52.19;100134.22;5016834;28;45546;-77
2021/07/24 09:01:43;;;;;;;;;4.25;4.00;;;;;23.25;51.50;100139.41;5016053;28;46429;-77
2021/07/24 09:04:08;;;;;;;;;5.00;4.00;;;;;23.31;51.47;100137.75;5015556;28;45702;-75
2021/07/24 09:06:34;;;;;;;;;3.75;3.25;;;;;23.30;51.38;100130.75;5018309;28;45754;-75
2021/07/24 09:09:00;;;;;;;;;4.00;3.00;;;;;23.42;51.73;100146.00;5020039;28;45589;-77
2021/07/24 09:15:00;;;;;;;;;5.00;5.00;;;;;23.47;50.86;100134.72;5008191;28;46688;-77
2021/07/24 09:17:26;;;;;;;;;4.50;4.50;;;;;23.53;51.49;100131.25;5015974;28;45746;-76
2021/07/24 09:19:52;;;;;;;;;3.25;3.00;;;;;23.63;51.23;100137.00;5015614;28;45634;-76
2021/07/24 09:22:37;;;;;;;;;5.00;4.00;;;;;23.70;51.11;100136.97;5015878;28;45957;-76
2021/07/24 09:25:02;;;;;;;;;5.00;3.00;;;;;23.77;51.02;100141.31;5015608;28;45663;-76
2021/07/24 09:27:28;;;;;;;;;6.25;4.00;;;;;23.67;50.74;100114.16;5015523;28;45691;-77
2021/07/24 09:29:54;;;;;;;;;4.00;3.00;;;;;23.80;50.90;100126.72;5015195;28;45472;-76
2021/07/24 09:32:19;;;;;;;;;9.00;4.75;;;;;23.91;50.91;100139.47;5015173;28;45492;-78
2021/07/24 09:34:46;;;;;;;;;3.75;3.00;;;;;23.91;50.29;100142.16;5015470;28;45526;-78
2021/07/24 09:37:31;;;;;;;;;6.50;4.00;;;;;24.01;50.48;100153.25;5015021;28;45686;-78
2021/07/24 09:40:16;;;;;;;;;2.25;2.25;;;;;24.02;49.73;100140.69;5014825;28;46456;-76
2021/07/24 09:42:41;;;;;;;;;3.75;3.00;;;;;24.00;49.89;100137.41;5015367;28;46492;-76
2021/07/24 09:45:07;;;;;;;;;4.50;3.75;;;;;24.04;49.52;100146.66;5014767;28;45916;-76
2021/07/24 09:47:33;;;;;;;;;3.00;3.00;;;;;23.99;49.65;100135.75;5014719;28;45539;-76
2021/07/24 09:50:08;;;;;;;;;4.00;3.75;;;;;24.06;49.88;100153.47;5014349;28;45504;-76
2021/07/24 09:52:44;;;;;;;;;5.00;4.50;;;;;24.02;49.65;100133.47;5014365;28;45549;-76
2021/07/24 09:55:21;;;;;;;;;4.00;2.75;;;;;24.17;49.98;100154.69;5014812;28;45649;-76
2021/07/24 09:57:47;;;;;;;;;5.00;3.00;;;;;24.21;49.68;100162.13;5014732;28;45634;-78
2021/07/24 10:00:21;;;;;;;;;3.75;3.50;;;;;24.21;48.82;100151.41;5014618;28;45787;-74
2021/07/24 10:02:46;;;;;;;;;4.75;4.00;;;;;24.21;49.32;100151.41;5014572;28;45947;-79
2021/07/24 10:05:13;;;;;;;;;4.50;3.00;;;;;24.20;48.92;100149.75;5014793;28;46084;-75
2021/07/24 10:07:42;;;;;;;;;3.75;3.25;;;;;24.15;49.10;100135.31;5014531;28;45778;-76
2021/07/24 10:10:08;;;;;;;;;3.75;3.75;;;;;24.34;48.58;100157.78;5013370;28;46479;-78
2021/07/24 10:12:34;;;;;;;;;4.50;3.50;;;;;24.35;48.24;100165.56;5013701;28;45527;-77
2021/07/24 10:15:00;;;;;;;;;3.00;3.00;;;;;24.40;48.06;100165.78;5012766;28;45554;-76
2021/07/24 10:17:26;;;;;;;;;5.50;4.25;;;;;24.33;47.56;100156.13;5013403;28;45816;-76
2021/07/24 10:19:51;;;;;;;;;4.50;4.00;;;;;24.39;48.01;100161.47;5013740;28;46338;-76
2021/07/24 10:22:18;;;;;;;;;4.25;3.50;;;;;24.36;47.69;100158.38;5022336;28;45586;-77
2021/07/24 10:24:43;;;;;;;;;4.00;3.00;;;;;24.32;47.93;100144.59;5025621;28;45673;-76
2021/07/24 10:30:32;;;;;;;;;4.25;4.00;;;;;24.53;47.92;100154.22;5020493;28;45653;-78
2021/07/24 10:32:59;;;;;;;;;4.00;3.50;;;;;24.61;47.98;100145.97;5003217;28;45638;-76
2021/07/24 10:35:38;;;;;;;;;3.00;3.00;;;;;24.69;47.30;100151.06;5024579;28;45410;-78
2021/07/24 10:38:29;;;;;;;;;4.00;4.00;;;;;24.74;47.30;100143.22;5024264;28;45500;-77
2021/07/24 10:41:15;;;;;;;;;3.00;2.75;;;;;24.81;47.52;100144.00;5030319;28;45551;-76
2021/07/24 10:44:03;;;;;;;;;2.00;2.00;;;;;24.87;46.93;100145.84;4927301;28;45570;-74
2021/07/24 10:46:44;;;;;;;;;3.25;3.00;;;;;24.94;47.03;100154.69;4925419;28;45958;-76
2021/07/24 10:49:22;;;;;;;;;4.00;3.00;;;;;24.99;47.12;100152.19;4924650;28;45532;-79
2021/07/24 10:51:57;;;;;;;;;2.00;2.00;;;;;25.02;46.91;100137.56;4925932;28;45584;-75
2021/07/24 10:54:23;;;;;;;;;4.00;4.00;;;;;25.05;46.79;100140.63;4922114;28;45609;-75
2021/07/24 10:56:49;;;;;;;;;4.50;3.50;;;;;25.08;46.81;100134.84;4906041;28;46034;-80
2021/07/24 10:59:14;;;;;;;;;3.00;3.00;;;;;25.15;46.60;100125.94;4926923;28;45769;-76
2021/07/24 11:01:59;;;;;;;;;2.25;2.25;;;;;25.19;46.39;100121.78;4921386;28;46430;-75
2021/07/24 11:04:37;;;;;;;;;3.25;3.00;;;;;25.28;46.12;100129.34;4919310;28;45908;-77
2021/07/24 11:07:21;;;;;;;;;5.25;4.00;;;;;25.35;45.77;100123.94;4919145;28;45653;-79
2021/07/24 11:10:04;;;;;;;;;2.25;2.25;;;;;25.39;45.85;100125.16;4919146;28;45760;-78
2021/07/24 11:12:39;;;;;;;;;3.00;3.00;;;;;25.43;45.82;100129.84;4919854;28;45593;-78
2021/07/24 11:15:21;;;;;;;;;2.00;2.00;;;;;25.53;45.50;100129.41;4922100;28;45780;-78
2021/07/24 11:18:23;;;;;;;;;3.00;3.00;;;;;25.60;44.97;100140.91;4923296;28;45719;-79
2021/07/24 11:20:49;;;;;;;;;2.25;2.25;;;;;25.64;45.27;100135.94;4941759;28;45659;-76
2021/07/24 11:23:15;;;;;;;;;2.50;2.00;;;;;25.69;45.32;100144.16;4980440;28;45707;-76
2021/07/24 11:29:02;;;;;;;;;4.00;3.50;;;;;25.82;45.19;100123.41;4977344;28;45657;-78
2021/07/24 11:31:28;;;;;;;;;3.00;3.00;;;;;25.92;45.34;100129.06;4978625;28;45806;-76
2021/07/24 11:33:53;;;;;;;;;3.00;3.00;;;;;25.99;44.96;100123.66;4978217;28;45605;-77
2021/07/24 11:36:19;;;;;;;;;2.75;2.00;;;;;26.03;44.90;100114.09;4977585;28;45661;-76
2021/07/24 11:38:45;;;;;;;;;4.00;3.00;;;;;26.07;44.39;100111.81;4961795;28;45725;-78
2021/07/24 11:44:32;;;;;;;;;3.00;2.00;;;;;26.20;44.68;100099.06;4975598;28;45997;-76
2021/07/24 11:47:03;;;;;;;;;3.00;3.00;;;;;26.23;45.07;100089.78;4974995;28;45814;-80
2021/07/24 11:49:30;;;;;;;;;3.75;3.00;;;;;26.33;44.61;100110.75;4977031;28;45696;-77
2021/07/24 11:51:56;;;;;;;;;3.25;3.00;;;;;26.36;44.80;100108.41;4976705;28;45608;-78
2021/07/24 11:54:34;;;;;;;;;2.50;2.50;;;;;26.34;44.39;100098.97;4977360;28;45894;-78
2021/07/24 12:00:39;;;;;;;;;4.00;2.00;;;;;26.54;43.94;100108.44;5016859;28;45738;-77
2021/07/24 12:03:24;;;;;;;;;2.25;2.25;;;;;26.57;43.75;100105.28;5016769;28;45692;-79
2021/07/24 12:05:57;;;;;;;;;2.00;2.00;;;;;26.61;43.84;100103.78;5016527;28;46296;-78
2021/07/24 12:08:27;;;;;;;;;1.75;1.75;;;;;26.68;42.90;100107.19;5016770;28;46129;-79
2021/07/24 12:10:54;;;;;;;;;3.00;2.00;;;;;26.69;43.16;100084.66;5016924;28;45836;-78
2021/07/24 12:16:41;;;;;;;;;3.25;3.25;;;;;26.77;42.62;100094.28;5005066;28;45737;-77
2021/07/24 12:19:17;;;;;;;;;2.25;2.25;;;;;26.76;42.45;100097.19;5016611;28;45701;-78
2021/07/24 12:21:48;;;;;;;;;2.00;2.00;;;;;26.74;41.53;100087.47;5016640;28;45682;-79
2021/07/24 12:24:24;;;;;;;;;2.50;1.75;;;;;26.70;41.75;100096.22;4999161;28;45900;-77
2021/07/24 12:27:05;;;;;;;;;2.50;2.00;;;;;26.66;41.95;100100.44;4981722;28;45667;-76
2021/07/24 12:29:31;;;;;;;;;3.00;1.50;;;;;26.60;41.55;100085.19;5016508;28;46263;-77
2021/07/24 12:31:58;;;;;;;;;2.00;1.25;;;;;26.61;41.76;100101.06;5015924;28;45585;-76
2021/07/24 12:34:24;;;;;;;;;2.75;1.00;;;;;26.53;41.30;100090.66;5015982;28;45553;-77
2021/07/24 12:36:51;;;;;;;;;2.00;2.00;;;;;26.59;41.81;100099.69;5014984;28;46570;-77
2021/07/24 12:39:20;;;;;;;;;3.75;3.75;;;;;26.59;42.05;100088.94;5015885;28;45968;-78
2021/07/24 12:42:00;;;;;;;;;4.00;2.00;;;;;26.64;41.68;100089.91;4997747;28;45535;-75
2021/07/24 12:44:26;;;;;;;;;2.25;2.25;;;;;26.61;41.64;100082.25;4998769;28;45956;-76
2021/07/24 12:47:11;;;;;;;;;1.50;1.50;;;;;26.74;41.66;100095.56;5015368;28;46497;-76